This is the latest recevied weather packets stored in our database for station/object TG9ADI-20. If no packets are shown the sender has not sent any weather packets the latest 10 day(s).
| Time | Temp. | Humidity | Pressure | Rain* | Wind** | Luminosity | Snow |
|---|---|---|---|---|---|---|---|
| 1778152060 | 17.78° C | 96% | 1014 hPa | 0 mm | - | - | - |
| 1778151460 | 17.78° C | 96% | 1014 hPa | 0 mm | - | - | - |
| 1778150859 | 17.78° C | 96% | 1014 hPa | 0 mm | - | - | - |
| 1778150258 | 17.78° C | 96% | 1014 hPa | 0 mm | - | - | - |
| 1778149658 | 17.78° C | 96% | 1014 hPa | 0 mm | - | - | - |
| 1778149057 | 17.78° C | 96% | 1014 hPa | 0 mm | - | - | - |
| 1778148456 | 17.78° C | 96% | 1014 hPa | 0 mm | - | - | - |
| 1778147856 | 17.78° C | 96% | 1014 hPa | 0 mm | - | - | - |
| 1778147255 | 17.78° C | 96% | 1014 hPa | 0 mm | - | - | - |
| 1778146654 | 18.33° C | 97% | 1014 hPa | 0 mm | - | - | - |
| 1778146054 | 17.78° C | 96% | 1014 hPa | 0 mm | - | - | - |
| 1778145453 | 17.22° C | 98% | 1014 hPa | 0 mm | - | - | - |
| 1778144853 | 17.22° C | 98% | 1014 hPa | 0 mm | - | - | - |
| 1778144252 | 18.33° C | 96% | 1014 hPa | 0 mm | - | - | - |
| 1778143651 | 18.33° C | 97% | 1014 hPa | 0 mm | - | - | - |
| 1778143051 | 18.33° C | 97% | 1014 hPa | 0 mm | - | - | - |
| 1778142450 | 17.78° C | 96% | 1014 hPa | 0 mm | - | - | - |
| 1778141849 | 17.78° C | 96% | 1014 hPa | 0 mm | - | - | - |
| 1778141249 | 17.78° C | 95% | 1014 hPa | 0 mm | - | - | - |
| 1778140647 | 17.78° C | 96% | 1014 hPa | 0 mm | - | - | - |
| 1778140047 | 17.22° C | 96% | 1014 hPa | 0 mm | - | - | - |
| 1778139446 | 17.78° C | 96% | 1014 hPa | 0 mm | - | - | - |
| 1778138845 | 18.89° C | 93% | 1015 hPa | 0 mm | - | - | - |
| 1778138245 | 17.22° C | 96% | 1015 hPa | 0 mm | - | - | - |
| 1778137640 | 17.78° C | 96% | 1015 hPa | 0 mm | - | - | - |
* Rain latest hour (hover to see other rain measurements)
** Current wind speed in m/s (hover to see current wind gust speed)